Hartsfield Jackson Atlanta International Airport
KATL : rendu visible

Aérodrome :











RETROUVEZ-NOUS SUR...

 
LOGIN :

S'inscrire | Disclaimer

   EN    FR    IT 

 









Légende :    VFR   VFR Marginal   IFR   IFR Intensif   IFR Très Intensif
Visi : 
Plafond : 
>= 8 km
>= 3000ft
5 à 8 km
1000 à 3000 ft
1500m à 5 km
500 à 1000 ft
800 à 1500m
200 à 500 ft
< 800m
< 200 ft
Symboles :   Orages  Brouillard  Fortes neiges  Fortes précipitations  Vent > 20 kt






- Altitude de l'aérodrome : 1026 ft
- Code IATA : ATL


KATL - Hartsfield Jackson Atlanta International

DERNIER METAR :
  • 312052Z 06006KT 10SM SCT065 BKN250 28/14 A3007 RMK AO2 SLP174 SCT065 V BKN T02830139 57010

METARs EXPIRÉS :
  • 311952Z 04009KT 10SM SCT060 29/14 A3008 RMK AO2 SLP178 T02890139
  • 311852Z VRB04KT 10SM SCT060 29/14 A3009 RMK AO2 SLP181 T02890144

TAF KATL
Valide du 31 à 20h jusqu'au 02 à 00h UTC


311937Z 3120/0124 05010KT P6SM SCT060
FM010000 03006KT P6SM SCT250
FM011100 08008KT P6SM SCT250
FM011500 09009KT P6SM FEW050 SCT250
FIR KZTL / Amérique du Nord



MET'MAP, la Météo Aéronautique d'un coup d'oeil ! - Copyright ORBIFLY Décembre 2007 - Disclaimer

ORBIFLY MET'MAP TEAM :

Programmation & Développement : Alexandra Zaïnal
Sur une idée originale de : Baudouin d'Aumeries
Assistance à la programmation : Marc-Olivier Méhu
Soutien technique & logistique : Manuel Goepfert

Contact : metmap@orbifly.com




SOURCES & CREDITS :

   NOAA       Earth
Advisory